Time;durP1;ratioP1;P1;durP2;ratioP2;P2;SDS_P1;SDS_P2;PMS_P1;PMS_P2;Temp;Humidity;BMP_temperature;BMP_pressure;BME280_temperature;BME280_humidity;BME280_pressure;Samples;Min_cycle;Max_cycle;Signal;HPM_P1;HPM_P2
2022/04/09 00:00:30;;;;;;;7.40;2.70;;;6.70;99.90;;;;;;5050119;28;20778;-34
2022/04/09 00:02:55;;;;;;;5.70;2.13;;;6.40;99.90;;;;;;5063399;28;20189;-37
2022/04/09 00:05:21;;;;;;;4.10;2.20;;;6.60;99.90;;;;;;5070600;28;20418;-39
2022/04/09 00:07:47;;;;;;;5.70;2.10;;;6.80;99.90;;;;;;5049570;28;20233;-39
2022/04/09 00:10:13;;;;;;;10.27;3.67;;;6.50;99.90;;;;;;5056225;28;20195;-34
2022/04/09 00:12:39;;;;;;;6.03;3.10;;;6.80;99.90;;;;;;5053246;28;20693;-33
2022/04/09 00:15:08;;;;;;;10.70;2.57;;;6.60;99.90;;;;;;5050612;28;20438;-36
2022/04/09 00:17:45;;;;;;;5.17;2.90;;;6.90;99.90;;;;;;5059245;28;20221;-40
2022/04/09 00:20:15;;;;;;;5.47;2.73;;;6.70;99.90;;;;;;5071003;28;20419;-36
2022/04/09 00:22:41;;;;;;;5.20;2.63;;;6.90;99.90;;;;;;5050955;28;20426;-35
2022/04/09 00:25:12;;;;;;;8.80;2.70;;;6.60;99.90;;;;;;5054946;28;20486;-34
2022/04/09 00:27:39;;;;;;;3.50;2.40;;;6.80;99.90;;;;;;5050327;28;21290;-38
2022/04/09 00:30:07;;;;;;;8.47;3.00;;;6.60;99.90;;;;;;5049852;28;20494;-35
2022/04/09 00:32:33;;;;;;;8.03;3.20;;;6.60;99.90;;;;;;5057443;28;20450;-39
2022/04/09 00:34:59;;;;;;;5.50;2.40;;;6.50;99.90;;;;;;5081608;28;20424;-38
2022/04/09 00:37:25;;;;;;;3.83;2.37;;;6.60;99.90;;;;;;5050097;28;20464;-36
2022/04/09 00:39:52;;;;;;;5.40;2.50;;;6.80;99.90;;;;;;5050948;28;20420;-39
2022/04/09 00:42:18;;;;;;;4.17;2.70;;;6.70;99.90;;;;;;5049978;28;20257;-38
2022/04/09 00:44:45;;;;;;;5.50;2.67;;;6.50;99.90;;;;;;5049866;28;20423;-37
2022/04/09 00:47:11;;;;;;;12.20;2.60;;;6.40;99.90;;;;;;5050556;28;20511;-35
2022/04/09 00:49:38;;;;;;;4.23;2.27;;;6.60;99.90;;;;;;5061864;28;20427;-40
2022/04/09 00:52:06;;;;;;;7.43;2.57;;;6.60;99.90;;;;;;5055230;28;20755;-40
2022/04/09 00:54:33;;;;;;;7.07;2.80;;;6.70;99.90;;;;;;5049754;28;20412;-34
2022/04/09 00:57:04;;;;;;;5.00;2.30;;;6.70;99.90;;;;;;5059915;28;20476;-38
2022/04/09 00:59:32;;;;;;;6.13;2.63;;;6.70;99.90;;;;;;5049542;28;20412;-39
2022/04/09 01:01:58;;;;;;;5.93;2.47;;;6.70;99.90;;;;;;5048572;28;20432;-40
2022/04/09 01:04:24;;;;;;;4.87;2.20;;;6.40;99.90;;;;;;5059195;28;20552;-35
2022/04/09 01:06:51;;;;;;;11.37;3.20;;;6.50;99.90;;;;;;5067544;28;20515;-40
2022/04/09 01:09:17;;;;;;;7.50;2.57;;;6.30;99.90;;;;;;5049314;28;20208;-37
2022/04/09 01:11:43;;;;;;;9.00;2.60;;;6.30;99.90;;;;;;5055191;28;20424;-39
2022/04/09 01:14:11;;;;;;;11.27;3.37;;;6.30;99.90;;;;;;5049181;28;20273;-36
2022/04/09 01:16:36;;;;;;;10.00;3.20;;;6.40;99.90;;;;;;5057387;28;20451;-38
2022/04/09 01:19:02;;;;;;;9.57;3.00;;;6.20;99.90;;;;;;5066171;28;20439;-36
2022/04/09 01:21:29;;;;;;;10.20;3.23;;;6.40;99.90;;;;;;5068112;28;20564;-40
2022/04/09 01:23:55;;;;;;;11.20;2.93;;;6.30;99.90;;;;;;5056380;28;20419;-37
2022/04/09 01:26:21;;;;;;;12.10;3.57;;;6.30;99.90;;;;;;5049245;28;20447;-38
2022/04/09 01:28:48;;;;;;;9.30;3.67;;;6.00;99.90;;;;;;5049153;28;20420;-39
2022/04/09 01:31:14;;;;;;;7.60;3.03;;;6.20;99.90;;;;;;5048406;28;20971;-38
2022/04/09 01:33:41;;;;;;;8.80;3.20;;;6.10;99.90;;;;;;5057042;28;20439;-40
2022/04/09 01:36:06;;;;;;;13.67;3.97;;;6.40;99.90;;;;;;5059483;28;20421;-40
2022/04/09 01:38:34;;;;;;;11.40;4.10;;;6.40;99.90;;;;;;5049143;28;20421;-35
2022/04/09 01:41:00;;;;;;;8.90;4.13;;;6.10;99.90;;;;;;5056243;28;20201;-38
2022/04/09 01:43:26;;;;;;;10.17;4.10;;;6.10;99.90;;;;;;5052465;28;20777;-37
2022/04/09 01:45:52;;;;;;;10.03;3.67;;;6.30;99.90;;;;;;5048710;28;20420;-37
2022/04/09 01:48:17;;;;;;;8.83;3.90;;;6.10;99.90;;;;;;5051537;28;20204;-38
2022/04/09 01:50:43;;;;;;;11.00;3.60;;;6.10;99.90;;;;;;5056585;28;20361;-40
2022/04/09 01:53:09;;;;;;;12.60;5.03;;;6.30;99.90;;;;;;5052064;28;20193;-36
2022/04/09 01:55:35;;;;;;;7.93;4.00;;;6.50;99.90;;;;;;5051940;28;20287;-37
2022/04/09 01:58:01;;;;;;;15.90;4.80;;;6.30;99.90;;;;;;5053041;28;20718;-34
2022/04/09 02:00:27;;;;;;;15.80;4.50;;;6.30;99.90;;;;;;5048169;28;20513;-39
2022/04/09 02:02:52;;;;;;;7.17;3.87;;;6.60;99.90;;;;;;5050104;28;20925;-37
2022/04/09 02:05:19;;;;;;;8.70;3.20;;;6.40;99.90;;;;;;5070907;28;20267;-37
2022/04/09 02:07:47;;;;;;;10.00;3.17;;;6.30;99.90;;;;;;5054681;28;20174;-37
2022/04/09 02:10:15;;;;;;;15.30;3.90;;;6.40;99.90;;;;;;5048265;28;20424;-34
2022/04/09 02:12:41;;;;;;;12.93;3.87;;;6.40;99.90;;;;;;5052391;28;20420;-37
2022/04/09 02:15:09;;;;;;;11.03;3.73;;;6.20;99.90;;;;;;5048806;28;20772;-40
2022/04/09 02:17:36;;;;;;;6.57;3.17;;;6.40;99.90;;;;;;5064113;28;20494;-38
2022/04/09 02:20:06;;;;;;;7.17;3.23;;;6.60;99.90;;;;;;5065502;28;20418;-37
2022/04/09 02:22:43;;;;;;;8.00;3.83;;;6.40;99.90;;;;;;5060774;28;20829;-35
2022/04/09 02:25:11;;;;;;;7.87;3.30;;;6.30;99.90;;;;;;5052483;28;20499;-36
2022/04/09 02:27:37;;;;;;;9.50;3.60;;;6.10;99.90;;;;;;5048478;28;20448;-40
2022/04/09 02:30:04;;;;;;;8.07;3.53;;;6.30;99.90;;;;;;5048057;28;20455;-37
2022/04/09 02:32:30;;;;;;;8.53;3.70;;;6.20;99.90;;;;;;5050088;28;20438;-37
2022/04/09 02:34:56;;;;;;;9.43;3.80;;;6.10;99.90;;;;;;5074877;28;20411;-40
2022/04/09 02:37:23;;;;;;;14.20;3.73;;;6.10;99.90;;;;;;5062793;28;20985;-37
2022/04/09 02:39:49;;;;;;;13.63;4.10;;;6.10;99.90;;;;;;5051571;28;20474;-35
2022/04/09 02:42:14;;;;;;;7.67;3.50;;;6.20;99.90;;;;;;5060129;28;20416;-34
2022/04/09 02:44:41;;;;;;;11.70;3.53;;;6.10;99.90;;;;;;5052417;28;20416;-37
2022/04/09 02:47:07;;;;;;;8.80;3.57;;;6.00;99.90;;;;;;5051521;28;20185;-37
2022/04/09 02:49:32;;;;;;;11.47;4.00;;;6.40;99.90;;;;;;5066279;28;20450;-37
2022/04/09 02:51:58;;;;;;;13.53;3.73;;;6.30;99.90;;;;;;5069146;28;21029;-37
2022/04/09 02:54:24;;;;;;;6.50;3.40;;;6.20;99.90;;;;;;5058672;28;20190;-38
2022/04/09 02:56:50;;;;;;;11.93;3.50;;;6.00;99.90;;;;;;5056133;28;20300;-38
2022/04/09 02:59:15;;;;;;;6.40;3.33;;;6.10;99.90;;;;;;5051913;28;20253;-39
2022/04/09 03:01:45;;;;;;;7.23;3.50;;;6.10;99.90;;;;;;5051170;28;20190;-36
2022/04/09 03:04:11;;;;;;;7.83;3.87;;;6.00;99.90;;;;;;5068255;28;20177;-37
2022/04/09 03:06:36;;;;;;;9.07;3.80;;;6.00;99.90;;;;;;5073211;28;20424;-38
2022/04/09 03:09:03;;;;;;;7.00;3.50;;;6.10;99.90;;;;;;5051776;28;20424;-36
2022/04/09 03:11:28;;;;;;;11.80;3.30;;;6.10;99.90;;;;;;5058060;28;20186;-37
2022/04/09 03:13:54;;;;;;;6.80;3.47;;;6.10;99.90;;;;;;5058362;28;20421;-37
2022/04/09 03:16:20;;;;;;;7.40;3.00;;;6.00;99.90;;;;;;5058833;28;20541;-35
2022/04/09 03:18:45;;;;;;;7.70;3.03;;;5.90;99.90;;;;;;5067989;28;20185;-37
2022/04/09 03:21:11;;;;;;;7.73;3.47;;;6.00;99.90;;;;;;5076159;28;20240;-38
2022/04/09 03:23:37;;;;;;;5.33;3.30;;;5.80;99.90;;;;;;5060583;28;20223;-37
2022/04/09 03:26:05;;;;;;;11.33;4.00;;;6.10;99.90;;;;;;5053527;28;20181;-34
2022/04/09 03:28:31;;;;;;;10.57;3.70;;;5.90;99.90;;;;;;5057637;28;20211;-39
2022/04/09 03:30:56;;;;;;;11.77;3.57;;;6.00;99.90;;;;;;5068948;28;20418;-38
2022/04/09 03:33:22;;;;;;;5.87;2.90;;;5.90;99.90;;;;;;5060123;28;20458;-38
2022/04/09 03:35:48;;;;;;;12.43;3.30;;;6.10;99.90;;;;;;5071247;28;20185;-40
2022/04/09 03:38:14;;;;;;;8.87;3.73;;;5.90;99.90;;;;;;5076423;28;20451;-35
2022/04/09 03:40:40;;;;;;;9.87;3.27;;;5.80;99.90;;;;;;5050576;28;20227;-37
2022/04/09 03:43:06;;;;;;;11.93;3.00;;;5.90;99.90;;;;;;5055721;28;21034;-37
2022/04/09 03:45:32;;;;;;;9.50;3.20;;;5.80;99.90;;;;;;5051231;28;20611;-36
2022/04/09 03:47:57;;;;;;;7.73;2.77;;;5.80;99.90;;;;;;5050882;28;20189;-40
2022/04/09 03:50:23;;;;;;;9.73;2.73;;;5.80;99.90;;;;;;5062060;28;21295;-39
2022/04/09 03:52:49;;;;;;;8.03;2.93;;;5.80;99.90;;;;;;5066314;28;20182;-39
2022/04/09 03:55:15;;;;;;;7.80;2.70;;;5.80;99.90;;;;;;5057381;28;20422;-39
2022/04/09 03:57:41;;;;;;;6.73;2.73;;;5.90;99.90;;;;;;5057605;28;20305;-36
2022/04/09 04:00:08;;;;;;;9.37;2.93;;;5.70;99.90;;;;;;5049145;28;20862;-39
2022/04/09 04:02:34;;;;;;;10.47;3.40;;;5.60;99.90;;;;;;5049333;28;20428;-38
2022/04/09 04:05:02;;;;;;;10.30;3.47;;;5.80;99.90;;;;;;5053300;28;20480;-40
2022/04/09 04:07:29;;;;;;;10.87;3.10;;;5.70;99.90;;;;;;5058246;28;20511;-34
2022/04/09 04:09:55;;;;;;;8.17;2.53;;;5.60;99.90;;;;;;5050025;28;20428;-37
2022/04/09 04:12:21;;;;;;;9.43;2.63;;;5.70;99.90;;;;;;5060125;28;20433;-39
2022/04/09 04:14:46;;;;;;;10.67;2.80;;;5.70;99.90;;;;;;5050622;28;20255;-38
2022/04/09 04:17:12;;;;;;;8.40;2.67;;;5.60;99.90;;;;;;5064674;28;20217;-36
2022/04/09 04:19:39;;;;;;;14.87;4.13;;;5.50;99.90;;;;;;5064512;28;20194;-39
2022/04/09 04:22:05;;;;;;;8.80;3.00;;;5.60;99.90;;;;;;5071223;28;20644;-35
2022/04/09 04:24:31;;;;;;;7.20;3.77;;;5.70;99.90;;;;;;5054216;28;20481;-38
2022/04/09 04:26:56;;;;;;;9.27;3.23;;;5.70;99.90;;;;;;5055326;28;20432;-35
2022/04/09 04:29:22;;;;;;;7.77;3.70;;;5.50;99.90;;;;;;5050297;28;20194;-37
2022/04/09 04:31:47;;;;;;;7.67;3.03;;;5.80;99.90;;;;;;5049556;28;20198;-37
2022/04/09 04:34:13;;;;;;;6.93;2.77;;;5.70;99.90;;;;;;5060342;28;20233;-39
2022/04/09 04:36:39;;;;;;;7.10;2.43;;;5.60;99.90;;;;;;5071700;28;20215;-36
2022/04/09 04:39:04;;;;;;;9.80;2.93;;;5.60;99.90;;;;;;5050018;28;20277;-40
2022/04/09 04:41:30;;;;;;;8.03;3.17;;;5.50;99.90;;;;;;5050718;28;20193;-40
2022/04/09 04:43:56;;;;;;;9.00;2.70;;;5.60;99.90;;;;;;5049865;28;20202;-39
2022/04/09 04:46:21;;;;;;;9.37;3.60;;;5.50;99.90;;;;;;5049798;28;20284;-40
2022/04/09 04:48:47;;;;;;;7.43;2.90;;;5.60;99.90;;;;;;5057548;28;20185;-37
2022/04/09 04:51:13;;;;;;;9.70;3.60;;;5.50;99.90;;;;;;5066136;28;20192;-38
2022/04/09 04:53:39;;;;;;;12.13;4.90;;;5.50;99.90;;;;;;5057917;28;20702;-40
2022/04/09 04:56:04;;;;;;;9.00;3.47;;;5.50;99.90;;;;;;5049546;28;20444;-38
2022/04/09 04:58:30;;;;;;;10.13;3.13;;;5.50;99.90;;;;;;5061044;28;20221;-38
2022/04/09 05:00:56;;;;;;;7.80;3.13;;;5.50;99.90;;;;;;5049224;28;20221;-38
2022/04/09 05:03:22;;;;;;;11.73;3.30;;;5.60;99.90;;;;;;5054504;28;20204;-37
2022/04/09 05:05:48;;;;;;;6.70;2.80;;;5.30;99.90;;;;;;5068851;28;20924;-40
2022/04/09 05:08:13;;;;;;;5.40;3.10;;;5.50;99.90;;;;;;5059232;28;20431;-40
2022/04/09 05:10:39;;;;;;;5.80;3.50;;;5.60;99.90;;;;;;5047779;28;20197;-36
2022/04/09 05:13:05;;;;;;;6.97;3.97;;;5.50;99.90;;;;;;5056947;28;20867;-41
2022/04/09 05:15:31;;;;;;;10.50;3.40;;;5.50;99.90;;;;;;5049406;28;20215;-37
2022/04/09 05:17:57;;;;;;;11.13;3.70;;;5.60;99.90;;;;;;5068855;28;20228;-35
2022/04/09 05:20:23;;;;;;;9.87;3.13;;;5.40;99.90;;;;;;5069863;28;20422;-36
2022/04/09 05:22:48;;;;;;;9.00;2.87;;;5.50;99.90;;;;;;5070003;28;20193;-37
2022/04/09 05:25:19;;;;;;;16.00;4.30;;;5.60;99.90;;;;;;5053647;28;20814;-37
2022/04/09 05:27:45;;;;;;;9.77;2.60;;;5.50;99.90;;;;;;5052322;28;20194;-37
2022/04/09 05:30:11;;;;;;;7.37;2.77;;;5.60;99.90;;;;;;5055983;28;20512;-35
2022/04/09 05:32:39;;;;;;;11.80;3.03;;;5.60;99.90;;;;;;5048391;28;20466;-37
2022/04/09 05:35:06;;;;;;;8.60;2.67;;;5.60;99.90;;;;;;5056869;28;20435;-39
2022/04/09 05:37:32;;;;;;;10.30;3.60;;;5.70;99.90;;;;;;5069045;28;20496;-40
2022/04/09 05:39:58;;;;;;;7.60;3.03;;;5.90;99.90;;;;;;5056741;28;20508;-36
2022/04/09 05:42:25;;;;;;;19.20;3.30;;;5.90;99.90;;;;;;5055660;28;20196;-35
2022/04/09 05:44:55;;;;;;;6.77;3.10;;;5.70;99.90;;;;;;5058048;28;20428;-39
2022/04/09 05:47:20;;;;;;;7.73;2.87;;;5.90;99.90;;;;;;5052604;28;20420;-37
2022/04/09 05:49:46;;;;;;;10.80;3.47;;;5.80;99.90;;;;;;5056000;28;20440;-38
2022/04/09 05:52:13;;;;;;;14.23;2.90;;;5.90;99.90;;;;;;5074221;28;20204;-36
2022/04/09 05:54:39;;;;;;;7.53;2.77;;;5.90;99.90;;;;;;5057217;28;20432;-38
2022/04/09 05:57:05;;;;;;;14.40;3.10;;;6.10;99.90;;;;;;5057445;28;20474;-37
2022/04/09 05:59:31;;;;;;;10.37;3.07;;;5.90;99.90;;;;;;5053762;28;20522;-37
2022/04/09 06:01:57;;;;;;;8.87;5.20;;;5.90;99.90;;;;;;5048074;28;21186;-35
2022/04/09 06:04:23;;;;;;;10.73;3.40;;;6.00;99.90;;;;;;5051054;28;20459;-38
2022/04/09 06:06:49;;;;;;;7.03;3.33;;;5.90;99.90;;;;;;5074743;28;20946;-39
2022/04/09 06:09:16;;;;;;;9.40;2.90;;;6.00;99.90;;;;;;5075643;28;20433;-35
2022/04/09 06:11:42;;;;;;;5.50;2.53;;;6.30;99.90;;;;;;5052188;28;20190;-38
2022/04/09 06:14:10;;;;;;;8.93;3.33;;;6.30;99.90;;;;;;5056688;28;20939;-34
2022/04/09 06:16:38;;;;;;;8.90;3.20;;;6.30;99.90;;;;;;5061278;28;20455;-40
2022/04/09 06:19:07;;;;;;;9.53;4.03;;;6.40;99.90;;;;;;5070714;28;20432;-38
2022/04/09 06:21:34;;;;;;;7.73;2.63;;;6.20;99.90;;;;;;5085513;28;20425;-40
2022/04/09 06:24:01;;;;;;;10.57;3.20;;;6.30;99.90;;;;;;5059659;28;20946;-38
2022/04/09 06:26:27;;;;;;;11.13;3.70;;;6.30;99.90;;;;;;5052485;28;20439;-38
2022/04/09 06:28:53;;;;;;;7.23;2.57;;;6.40;99.90;;;;;;5065203;28;20431;-34
2022/04/09 06:31:19;;;;;;;11.20;2.90;;;6.60;99.90;;;;;;5051799;28;20485;-34
2022/04/09 06:33:44;;;;;;;6.90;2.73;;;6.60;99.90;;;;;;5052782;28;20939;-40
2022/04/09 06:36:10;;;;;;;10.17;2.87;;;6.60;99.90;;;;;;5060004;28;20177;-41
2022/04/09 06:38:36;;;;;;;9.50;2.97;;;6.60;99.90;;;;;;5056224;28;20202;-37
2022/04/09 06:41:01;;;;;;;8.00;3.23;;;6.70;99.90;;;;;;5051903;28;20209;-39
2022/04/09 06:43:27;;;;;;;6.77;2.87;;;6.40;99.90;;;;;;5056114;28;20188;-40
2022/04/09 06:45:53;;;;;;;8.43;3.50;;;6.40;99.90;;;;;;5060900;28;20182;-37
2022/04/09 06:48:19;;;;;;;7.20;2.70;;;6.60;99.90;;;;;;5067063;28;20427;-37
2022/04/09 06:50:44;;;;;;;7.27;2.57;;;6.90;99.90;;;;;;5071372;28;20472;-39
2022/04/09 06:53:10;;;;;;;7.07;3.00;;;7.20;99.90;;;;;;5072222;28;20201;-34
2022/04/09 06:55:36;;;;;;;8.70;3.50;;;7.30;99.90;;;;;;5057651;28;20210;-39
2022/04/09 06:58:02;;;;;;;10.20;3.27;;;7.70;99.90;;;;;;5060319;28;20553;-39
2022/04/09 07:00:28;;;;;;;9.20;3.27;;;7.80;99.90;;;;;;5063678;28;21031;-37
2022/04/09 07:02:54;;;;;;;6.83;2.87;;;8.10;99.90;;;;;;5067082;28;20446;-37
2022/04/09 07:05:21;;;;;;;7.77;3.83;;;8.10;99.90;;;;;;5070778;28;20476;-38
2022/04/09 07:07:50;;;;;;;9.93;3.70;;;8.30;99.90;;;;;;5073722;28;20435;-36
2022/04/09 07:10:16;;;;;;;9.80;3.13;;;8.40;99.90;;;;;;5051791;28;20424;-35
2022/04/09 07:12:42;;;;;;;9.00;3.37;;;8.40;99.90;;;;;;5052142;28;20435;-36
2022/04/09 07:15:09;;;;;;;6.00;2.63;;;8.50;99.90;;;;;;5051568;28;20451;-40
2022/04/09 07:17:35;;;;;;;9.17;3.40;;;8.10;99.90;;;;;;5065375;28;20499;-34
2022/04/09 07:20:05;;;;;;;6.10;2.67;;;8.30;99.90;;;;;;5074286;28;20782;-40
2022/04/09 07:22:32;;;;;;;7.93;3.57;;;8.00;99.90;;;;;;5058249;28;20934;-40
2022/04/09 07:24:58;;;;;;;8.83;3.07;;;7.90;99.90;;;;;;5050781;28;20428;-37
2022/04/09 07:27:35;;;;;;;5.97;2.70;;;8.20;99.90;;;;;;5052142;28;20433;-35
2022/04/09 07:30:27;;;;;;;5.67;2.77;;;7.90;99.90;;;;;;5058221;28;20523;-38
2022/04/09 07:32:57;;;;;;;7.87;2.77;;;7.90;99.90;;;;;;5049266;28;20499;-39
2022/04/09 07:35:22;;;;;;;8.90;2.57;;;8.00;99.90;;;;;;5068539;28;20431;-37
2022/04/09 07:37:50;;;;;;;7.20;2.70;;;8.10;99.90;;;;;;5054632;28;20918;-39
2022/04/09 07:40:19;;;;;;;6.57;3.13;;;7.90;99.90;;;;;;5051505;28;20193;-36
2022/04/09 07:42:45;;;;;;;7.13;3.23;;;8.00;99.90;;;;;;5054214;28;20968;-36
2022/04/09 07:45:12;;;;;;;8.77;2.73;;;7.70;99.90;;;;;;5059758;28;20481;-39
2022/04/09 07:47:38;;;;;;;15.40;3.20;;;7.70;99.90;;;;;;5076322;28;20458;-39
2022/04/09 07:50:07;;;;;;;8.50;2.73;;;7.80;99.90;;;;;;5060760;28;20471;-37
2022/04/09 07:52:33;;;;;;;11.33;3.87;;;7.70;99.90;;;;;;5063833;28;20213;-38
2022/04/09 07:54:59;;;;;;;7.17;2.73;;;7.70;99.90;;;;;;5053042;28;20456;-34
2022/04/09 07:57:25;;;;;;;13.63;4.23;;;7.70;99.90;;;;;;5050565;28;20221;-36
2022/04/09 07:59:58;;;;;;;14.97;4.47;;;7.90;99.90;;;;;;5050589;28;20423;-36
2022/04/09 08:02:24;;;;;;;43.07;8.93;;;7.80;99.90;;;;;;5051410;28;20428;-38
2022/04/09 08:04:50;;;;;;;10.37;3.50;;;7.70;99.90;;;;;;5062744;28;20938;-33
2022/04/09 08:07:16;;;;;;;17.30;4.80;;;7.80;99.90;;;;;;5072456;28;20415;-37
2022/04/09 08:09:45;;;;;;;9.57;3.80;;;7.90;99.90;;;;;;5065756;28;20546;-38
2022/04/09 08:12:15;;;;;;;5.13;2.57;;;7.80;99.90;;;;;;5068111;28;20442;-40
2022/04/09 08:14:41;;;;;;;8.30;3.83;;;7.60;99.90;;;;;;5061515;28;20428;-39
2022/04/09 08:17:07;;;;;;;11.53;4.77;;;7.50;99.90;;;;;;5081053;28;20567;-39
2022/04/09 08:19:34;;;;;;;10.07;4.30;;;7.40;99.90;;;;;;5070052;28;20504;-39
2022/04/09 08:22:01;;;;;;;8.30;4.57;;;7.40;99.90;;;;;;5055739;28;20436;-41
2022/04/09 08:24:27;;;;;;;7.73;4.47;;;7.50;99.90;;;;;;5055627;28;20431;-40
2022/04/09 08:26:52;;;;;;;7.90;3.43;;;7.70;99.90;;;;;;5071676;28;20446;-38
2022/04/09 08:29:20;;;;;;;10.50;4.37;;;7.90;99.90;;;;;;5056046;28;20267;-36
2022/04/09 08:31:47;;;;;;;12.50;3.70;;;7.70;99.90;;;;;;5064748;28;20193;-37
2022/04/09 08:34:18;;;;;;;9.83;4.20;;;7.90;99.90;;;;;;5063922;28;20464;-35
2022/04/09 08:36:44;;;;;;;6.37;3.37;;;8.10;99.90;;;;;;5062284;28;20564;-34
2022/04/09 08:39:11;;;;;;;4.27;2.80;;;8.30;99.90;;;;;;5060216;28;20416;-40
2022/04/09 08:41:39;;;;;;;10.87;4.40;;;8.20;99.90;;;;;;5049153;28;20515;-39
2022/04/09 08:44:05;;;;;;;12.70;3.60;;;8.30;99.90;;;;;;5051840;28;20428;-39
2022/04/09 08:46:31;;;;;;;11.43;4.40;;;8.50;99.90;;;;;;5049715;28;20458;-36
2022/04/09 08:49:02;;;;;;;12.10;4.00;;;8.20;99.90;;;;;;5049859;28;20523;-38
2022/04/09 08:51:28;;;;;;;13.13;4.30;;;8.00;99.90;;;;;;5060421;28;20517;-37
2022/04/09 08:53:55;;;;;;;6.73;4.20;;;8.00;99.90;;;;;;5068312;28;20511;-39
2022/04/09 08:56:21;;;;;;;9.60;4.70;;;8.00;99.90;;;;;;5049663;28;20683;-39
2022/04/09 08:58:47;;;;;;;9.67;4.27;;;8.20;99.90;;;;;;5056767;28;20436;-36
2022/04/09 09:01:12;;;;;;;9.40;4.70;;;7.90;99.90;;;;;;5051319;28;20582;-37
2022/04/09 09:03:38;;;;;;;8.83;4.97;;;8.10;99.90;;;;;;5048715;28;20196;-37
2022/04/09 09:06:35;;;;;;;8.77;4.90;;;8.50;99.90;;;;;;5049063;28;20601;-41
2022/04/09 09:09:02;;;;;;;7.30;5.10;;;8.60;99.90;;;;;;5067744;28;20811;-40
2022/04/09 09:11:29;;;;;;;10.17;5.23;;;8.70;99.90;;;;;;5048907;28;21218;-37
2022/04/09 09:13:57;;;;;;;6.53;4.50;;;8.70;99.90;;;;;;5056374;28;20449;-40
2022/04/09 09:16:26;;;;;;;8.60;4.50;;;8.80;99.90;;;;;;5049591;28;20783;-38
2022/04/09 09:18:54;;;;;;;5.40;4.70;;;9.00;99.90;;;;;;5049191;28;20425;-38
2022/04/09 09:21:23;;;;;;;6.30;4.33;;;9.20;99.90;;;;;;5058044;28;20846;-41
2022/04/09 09:23:51;;;;;;;8.93;4.50;;;9.20;99.90;;;;;;5064394;28;20451;-39
2022/04/09 09:26:23;;;;;;;6.30;3.60;;;9.40;99.90;;;;;;5059988;28;20908;-40
2022/04/09 09:28:56;;;;;;;7.73;3.57;;;9.60;99.90;;;;;;5050210;28;20479;-37
2022/04/09 09:31:45;;;;;;;5.00;3.17;;;9.70;99.90;;;;;;5047364;28;20513;-38
2022/04/09 09:34:12;;;;;;;3.77;2.80;;;9.70;99.90;;;;;;5049340;28;20420;-37
2022/04/09 09:36:40;;;;;;;4.47;2.33;;;9.50;99.90;;;;;;5056641;28;20479;-36
2022/04/09 09:39:07;;;;;;;7.00;2.10;;;9.60;99.90;;;;;;5072144;28;20426;-39
2022/04/09 09:41:33;;;;;;;6.23;1.97;;;9.50;99.90;;;;;;5048320;28;20432;-38
2022/04/09 09:44:04;;;;;;;3.10;1.67;;;9.20;99.90;;;;;;5055433;28;20431;-35
2022/04/09 09:46:30;;;;;;;2.53;1.50;;;9.10;99.90;;;;;;5053898;28;20567;-35
2022/04/09 09:48:56;;;;;;;4.00;1.90;;;9.10;99.90;;;;;;5048920;28;20424;-34
2022/04/09 09:51:23;;;;;;;1.90;1.37;;;9.20;99.90;;;;;;5054385;28;20444;-37
2022/04/09 09:53:48;;;;;;;1.17;1.07;;;8.90;99.90;;;;;;5066248;28;20553;-41
2022/04/09 09:56:36;;;;;;;2.97;1.83;;;9.00;99.90;;;;;;5054443;28;20440;-38
2022/04/09 09:59:05;;;;;;;2.63;1.20;;;8.60;99.90;;;;;;5053930;28;20314;-37
2022/04/09 10:01:35;;;;;;;1.73;1.37;;;8.60;99.90;;;;;;5049500;28;20553;-38
2022/04/09 10:04:03;;;;;;;3.27;1.63;;;8.30;99.90;;;;;;5048125;28;20468;-40
2022/04/09 10:06:30;;;;;;;2.77;1.37;;;8.20;99.90;;;;;;5059558;28;20431;-40
2022/04/09 10:08:58;;;;;;;2.50;1.60;;;8.20;99.90;;;;;;5078633;28;20483;-37
2022/04/09 10:11:24;;;;;;;2.77;1.20;;;8.10;99.90;;;;;;5048418;28;20466;-40
2022/04/09 10:13:51;;;;;;;1.83;1.17;;;8.60;99.90;;;;;;5051257;28;20457;-39
2022/04/09 10:16:21;;;;;;;1.00;0.73;;;8.80;99.90;;;;;;5048434;28;20412;-37
2022/04/09 10:18:51;;;;;;;1.17;0.80;;;9.20;99.90;;;;;;5048624;28;20945;-35
2022/04/09 10:21:18;;;;;;;1.33;0.70;;;9.50;99.90;;;;;;5050496;28;20515;-40
2022/04/09 10:23:45;;;;;;;1.23;0.50;;;9.80;99.90;;;;;;5071255;28;20416;-38
2022/04/09 10:26:12;;;;;;;2.57;0.80;;;10.00;99.90;;;;;;5055476;28;20421;-39
2022/04/09 10:28:39;;;;;;;2.80;0.97;;;10.30;99.90;;;;;;5048395;28;20420;-35
2022/04/09 10:31:23;;;;;;;3.40;1.77;;;10.40;99.90;;;;;;5059733;28;20447;-35
2022/04/09 10:33:56;;;;;;;2.97;1.63;;;10.60;99.90;;;;;;5048412;28;20423;-40
2022/04/09 10:36:40;;;;;;;3.30;1.90;;;10.60;99.90;;;;;;5051634;28;21089;-37
2022/04/09 10:39:38;;;;;;;2.90;1.80;;;10.80;99.90;;;;;;5068929;28;20403;-37
2022/04/09 10:42:04;;;;;;;3.83;2.20;;;10.90;99.90;;;;;;5048283;28;20526;-35
2022/04/09 10:44:42;;;;;;;3.20;1.80;;;11.00;99.90;;;;;;5054862;28;21003;-40
2022/04/09 10:47:10;;;;;;;4.83;3.07;;;11.00;99.00;;;;;;5048643;28;20424;-39
2022/04/09 10:49:37;;;;;;;5.10;2.60;;;11.00;99.40;;;;;;5047764;28;21023;-40
2022/04/09 10:52:16;;;;;;;3.63;2.20;;;11.00;99.20;;;;;;5058089;28;20483;-37
2022/04/09 10:55:09;;;;;;;6.80;2.80;;;11.40;99.00;;;;;;5077833;28;20470;-36
2022/04/09 10:57:49;;;;;;;6.00;2.63;;;11.40;99.30;;;;;;5059556;28;20834;-37
2022/04/09 11:00:23;;;;;;;3.80;2.47;;;11.30;98.20;;;;;;5051478;28;20420;-39
2022/04/09 11:03:05;;;;;;;4.57;2.70;;;11.30;99.70;;;;;;5051670;28;20416;-35
2022/04/09 11:05:31;;;;;;;6.27;2.80;;;11.50;98.10;;;;;;5050857;28;20416;-37
2022/04/09 11:08:07;;;;;;;3.70;2.67;;;11.40;97.70;;;;;;5074058;28;20466;-40
2022/04/09 11:10:33;;;;;;;2.90;2.60;;;11.20;97.00;;;;;;5068501;28;20769;-38
2022/04/09 11:12:59;;;;;;;3.93;2.27;;;11.10;96.60;;;;;;5053236;28;20427;-40
2022/04/09 11:15:27;;;;;;;3.70;2.60;;;11.00;97.00;;;;;;5063466;28;20419;-39
2022/04/09 11:18:00;;;;;;;1.93;1.80;;;10.80;96.00;;;;;;5051927;28;20228;-40
2022/04/09 11:20:30;;;;;;;5.87;1.67;;;10.70;97.20;;;;;;5049526;28;20515;-40
2022/04/09 11:22:56;;;;;;;1.10;0.90;;;10.20;99.10;;;;;;5053827;28;20973;-41
2022/04/09 11:25:23;;;;;;;0.70;0.47;;;9.70;99.90;;;;;;5060886;28;20433;-38
2022/04/09 11:27:50;;;;;;;1.07;0.60;;;9.20;99.90;;;;;;5051683;28;20452;-37
2022/04/09 11:30:16;;;;;;;1.37;0.70;;;8.80;99.90;;;;;;5059631;28;20423;-39
2022/04/09 11:32:42;;;;;;;0.60;0.53;;;8.60;99.90;;;;;;5051463;28;20419;-41
2022/04/09 11:35:12;;;;;;;2.73;1.07;;;8.20;99.90;;;;;;5051267;28;21038;-39
2022/04/09 11:37:43;;;;;;;3.00;0.90;;;8.00;99.90;;;;;;5060958;28;20246;-40
2022/04/09 11:40:11;;;;;;;1.90;0.70;;;7.70;99.90;;;;;;5071663;28;20959;-36
2022/04/09 11:42:47;;;;;;;1.37;0.63;;;7.70;99.90;;;;;;5050909;28;20507;-37
2022/04/09 11:45:27;;;;;;;1.10;0.77;;;7.40;99.90;;;;;;5066595;28;20416;-34
2022/04/09 11:47:55;;;;;;;2.70;1.53;;;7.40;99.90;;;;;;5065130;28;20416;-36
2022/04/09 11:50:21;;;;;;;4.50;4.10;;;7.20;99.90;;;;;;5051451;28;20420;-34
2022/04/09 11:52:47;;;;;;;4.47;4.17;;;7.20;99.90;;;;;;5059851;28;20436;-37
2022/04/09 11:55:14;;;;;;;4.80;4.43;;;7.30;99.90;;;;;;5080945;28;20475;-38
2022/04/09 11:57:50;;;;;;;2.40;0.93;;;7.50;99.90;;;;;;5050142;28;20534;-32
2022/04/09 12:00:16;;;;;;;5.97;3.80;;;7.40;99.90;;;;;;5073977;28;20780;-35
2022/04/09 12:02:42;;;;;;;2.40;1.50;;;7.80;99.90;;;;;;5058079;28;20431;-38
2022/04/09 12:05:12;;;;;;;3.17;1.27;;;7.90;99.90;;;;;;5062570;28;20821;-34
2022/04/09 12:07:46;;;;;;;4.03;3.60;;;8.40;99.90;;;;;;5062263;28;20202;-38
2022/04/09 12:10:53;;;;;;;2.17;1.40;;;8.80;99.90;;;;;;5069972;28;20433;-38
2022/04/09 12:13:26;;;;;;;2.20;1.70;;;9.60;99.90;;;;;;5046775;28;20951;-37
2022/04/09 12:15:52;;;;;;;2.27;1.80;;;10.10;99.90;;;;;;5071432;28;20428;-38
2022/04/09 12:18:31;;;;;;;3.07;1.57;;;10.50;99.90;;;;;;5070862;28;20995;-39
2022/04/09 12:20:57;;;;;;;2.80;1.90;;;11.00;99.90;;;;;;5063237;28;20527;-39
2022/04/09 12:23:33;;;;;;;2.00;1.40;;;11.50;99.90;;;;;;5067759;28;20427;-38
2022/04/09 12:25:59;;;;;;;4.37;1.73;;;12.00;99.90;;;;;;5060912;28;20769;-39
2022/04/09 12:28:32;;;;;;;4.83;1.33;;;12.30;99.90;;;;;;5052225;28;20431;-38
2022/04/09 12:31:00;;;;;;;3.40;1.90;;;12.50;99.90;;;;;;5072927;28;20533;-37
2022/04/09 12:33:26;;;;;;;2.00;1.57;;;13.00;99.90;;;;;;5071538;28;20798;-41
2022/04/09 12:36:05;;;;;;;3.50;1.53;;;13.50;99.90;;;;;;5049364;28;20462;-40
2022/04/09 12:38:41;;;;;;;3.50;1.27;;;13.90;99.90;;;;;;5065296;28;20463;-38
2022/04/09 12:41:07;;;;;;;1.53;1.20;;;14.30;99.90;;;;;;5060420;28;20446;-40
2022/04/09 12:43:41;;;;;;;2.43;1.50;;;14.60;99.30;;;;;;5051169;28;20428;-41
2022/04/09 12:46:14;;;;;;;2.03;1.03;;;14.70;96.50;;;;;;5049833;28;20182;-37
2022/04/09 12:48:45;;;;;;;2.00;1.00;;;14.80;96.70;;;;;;5049011;28;20870;-37
2022/04/09 12:51:18;;;;;;;1.50;1.40;;;15.00;96.80;;;;;;5047839;28;20519;-39
2022/04/09 12:53:44;;;;;;;3.17;0.97;;;14.90;95.00;;;;;;5060591;28;20423;-41
2022/04/09 12:56:15;;;;;;;1.90;1.00;;;14.80;93.10;;;;;;5074011;28;20454;-36